Great — TCYV6 — position and weather

sailwx.info

Track history (hours):
 
Tides and Currents Weather Stations Pressure Air Temp Water Temp Dewpoint Dewpoint Depression Visibility Wind Speed Wind Dir Waves Ship Positions

Great

Last reported at 2017-Sep-18 18:01 UTC. Time now 2017-Sep-25 17:20 UTC.
Position N 36°31' E 024°42'.

Length 186 m; draft 6.5 m.

Type: Cargo ship. MMSI: 271042241.

Date/timePositionNaut miles runAvg speedWind from/ knotsBaromVisibWave heightAir tempDewpointWater temp
2017-Sep-18 18:01N 36°31' E 024°42'010.8
2017-Sep-18 17:59N 36°31' E 024°41'511.0
2017-Sep-18 17:29N 36°31' E 024°34'2410.9
2017-Sep-18 15:19N 36°28' E 024°05'411.2
2017-Sep-18 14:57N 36°27' E 024°00'611.4
2017-Sep-18 14:28N 36°26' E 023°53'811.4
2017-Sep-18 13:47N 36°25' E 023°44'21110.5
2017-Sep-17 17:40N 38°22' E 020°02'210.7
2017-Sep-17 17:30N 38°23' E 020°01'510.8
2017-Sep-17 17:00N 38°28' E 019°58'510.6
2017-Sep-17 16:30N 38°33' E 019°55'510.6
2017-Sep-17 16:00N 38°37' E 019°52'510.3
2017-Sep-17 15:30N 38°42' E 019°48'510.2
2017-Sep-17 15:00N 38°46' E 019°45'510.3
2017-Sep-17 14:30N 38°51' E 019°42'510.5
2017-Sep-17 14:00N 38°55' E 019°39'510.7
2017-Sep-17 13:30N 38°60' E 019°35'510.7
2017-Sep-17 13:00N 39°05' E 019°32'510.9
2017-Sep-17 12:30N 39°10' E 019°29'611.1
2017-Sep-17 12:00N 39°14' E 019°25'611.4
2017-Sep-17 11:30N 39°19' E 019°22'611.2
2017-Sep-17 11:00N 39°24' E 019°18'611.2
2017-Sep-17 10:30N 39°29' E 019°14'611.0
2017-Sep-17 10:00N 39°34' E 019°11'510.9
2017-Sep-17 09:30N 39°39' E 019°08'510.8
2017-Sep-17 09:00N 39°43' E 019°04'510.8
2017-Sep-17 08:30N 39°48' E 019°01'611.0
2017-Sep-17 08:00N 39°53' E 018°57'611.2
2017-Sep-17 07:30N 39°58' E 018°54'611.3
2017-Sep-17 07:00N 40°03' E 018°50'611.2
2017-Sep-17 06:30N 40°07' E 018°46'510.9
2017-Sep-17 06:00N 40°12' E 018°43'511.0
2017-Sep-17 05:30N 40°17' E 018°39'611.2
2017-Sep-17 05:00N 40°22' E 018°36'611.4
2017-Sep-17 04:30N 40°27' E 018°32'611.5
2017-Sep-17 04:00N 40°32' E 018°28'611.6
2017-Sep-17 03:30N 40°36' E 018°22'611.2
2017-Sep-17 03:00N 40°39' E 018°17'611.5
2017-Sep-17 02:30N 40°43' E 018°11'611.3
2017-Sep-17 01:57N 40°48' E 018°05'511.5
2017-Sep-17 01:30N 40°51' E 018°01'611.5
2017-Sep-17 00:58N 40°56' E 017°55'511.2
2017-Sep-17 00:30N 40°60' E 017°50'611.0
2017-Sep-16 23:59N 41°04' E 017°45'510.9
2017-Sep-16 23:30N 41°08' E 017°40'610.9
2017-Sep-16 22:59N 41°11' E 017°35'611.0
2017-Sep-16 22:24N 41°16' E 017°28'511.0
2017-Sep-16 21:55N 41°19' E 017°23'510.9
2017-Sep-16 21:30N 41°22' E 017°18'510.8
2017-Sep-16 20:59N 41°26' E 017°13'26211.2
2017-Sep-15 21:39N 44°23' E 012°50'212.2
2017-Sep-15 21:30N 44°24' E 012°48'612.2
2017-Sep-15 21:00N 44°26' E 012°40'612.0
2017-Sep-15 20:29N 44°28' E 012°32'11 3.3
2017-Sep-15 17:03N 44°29' E 012°16'0 0.0
2017-Sep-14 05:47N 44°29' E 012°16'0 0.0
2017-Sep-14 05:29N 44°29' E 012°16'40 1.9
2017-Sep-13 08:45N 44°19' E 013°10'310.1
2017-Sep-13 08:29N 44°18' E 013°13'5 9.9
2017-Sep-13 08:00N 44°15' E 013°19'  
2017-Sep-11 02:00N 37°20' E 020°49'510.1
2017-Sep-11 01:30N 37°15' E 020°53'191 9.3
2017-Sep-10 04:50N 36°33' E 024°46'410.4
2017-Sep-10 04:29N 36°33' E 024°50'  
Track history (hours):
 
Tides and Currents Weather Stations Pressure Air Temp Water Temp Dewpoint Dewpoint Depression Visibility Wind Speed Wind Dir Waves Ship Positions

Great

Last reported at 2017-Sep-18 18:01 UTC. Time now 2017-Sep-25 17:20 UTC.
Position N 36°31' E 024°42'.

Length 186 m; draft 6.5 m.

Type: Cargo ship. MMSI: 271042241.

Date/timePositionNaut miles runAvg speedWind from/ knotsBaromVisibWave heightAir tempDewpointWater temp
2017-Sep-18 18:01N 36°31' E 024°42'010.8
2017-Sep-18 17:59N 36°31' E 024°41'511.0
2017-Sep-18 17:29N 36°31' E 024°34'2410.9
2017-Sep-18 15:19N 36°28' E 024°05'411.2
2017-Sep-18 14:57N 36°27' E 024°00'611.4
2017-Sep-18 14:28N 36°26' E 023°53'811.4
2017-Sep-18 13:47N 36°25' E 023°44'21110.5
2017-Sep-17 17:40N 38°22' E 020°02'210.7
2017-Sep-17 17:30N 38°23' E 020°01'510.8
2017-Sep-17 17:00N 38°28' E 019°58'510.6
2017-Sep-17 16:30N 38°33' E 019°55'510.6
2017-Sep-17 16:00N 38°37' E 019°52'510.3
2017-Sep-17 15:30N 38°42' E 019°48'510.2
2017-Sep-17 15:00N 38°46' E 019°45'510.3
2017-Sep-17 14:30N 38°51' E 019°42'510.5
2017-Sep-17 14:00N 38°55' E 019°39'510.7
2017-Sep-17 13:30N 38°60' E 019°35'510.7
2017-Sep-17 13:00N 39°05' E 019°32'510.9
2017-Sep-17 12:30N 39°10' E 019°29'611.1
2017-Sep-17 12:00N 39°14' E 019°25'611.4
2017-Sep-17 11:30N 39°19' E 019°22'611.2
2017-Sep-17 11:00N 39°24' E 019°18'611.2
2017-Sep-17 10:30N 39°29' E 019°14'611.0
2017-Sep-17 10:00N 39°34' E 019°11'510.9
2017-Sep-17 09:30N 39°39' E 019°08'510.8
2017-Sep-17 09:00N 39°43' E 019°04'510.8
2017-Sep-17 08:30N 39°48' E 019°01'611.0
2017-Sep-17 08:00N 39°53' E 018°57'611.2
2017-Sep-17 07:30N 39°58' E 018°54'611.3
2017-Sep-17 07:00N 40°03' E 018°50'611.2
2017-Sep-17 06:30N 40°07' E 018°46'510.9
2017-Sep-17 06:00N 40°12' E 018°43'511.0
2017-Sep-17 05:30N 40°17' E 018°39'611.2
2017-Sep-17 05:00N 40°22' E 018°36'611.4
2017-Sep-17 04:30N 40°27' E 018°32'611.5
2017-Sep-17 04:00N 40°32' E 018°28'611.6
2017-Sep-17 03:30N 40°36' E 018°22'611.2
2017-Sep-17 03:00N 40°39' E 018°17'611.5
2017-Sep-17 02:30N 40°43' E 018°11'611.3
2017-Sep-17 01:57N 40°48' E 018°05'511.5
2017-Sep-17 01:30N 40°51' E 018°01'611.5
2017-Sep-17 00:58N 40°56' E 017°55'511.2
2017-Sep-17 00:30N 40°60' E 017°50'611.0
2017-Sep-16 23:59N 41°04' E 017°45'510.9
2017-Sep-16 23:30N 41°08' E 017°40'610.9
2017-Sep-16 22:59N 41°11' E 017°35'611.0
2017-Sep-16 22:24N 41°16' E 017°28'511.0
2017-Sep-16 21:55N 41°19' E 017°23'510.9
2017-Sep-16 21:30N 41°22' E 017°18'510.8
2017-Sep-16 20:59N 41°26' E 017°13'26211.2
2017-Sep-15 21:39N 44°23' E 012°50'212.2
2017-Sep-15 21:30N 44°24' E 012°48'612.2
2017-Sep-15 21:00N 44°26' E 012°40'612.0
2017-Sep-15 20:29N 44°28' E 012°32'11 3.3
2017-Sep-15 17:03N 44°29' E 012°16'0 0.0
2017-Sep-14 05:47N 44°29' E 012°16'0 0.0
2017-Sep-14 05:29N 44°29' E 012°16'40 1.9
2017-Sep-13 08:45N 44°19' E 013°10'310.1
2017-Sep-13 08:29N 44°18' E 013°13'5 9.9
2017-Sep-13 08:00N 44°15' E 013°19'  
2017-Sep-11 02:00N 37°20' E 020°49'510.1
2017-Sep-11 01:30N 37°15' E 020°53'191 9.3
2017-Sep-10 04:50N 36°33' E 024°46'410.4
2017-Sep-10 04:29N 36°33' E 024°50'  

Dump ship's entire track history